Onde está Monte da Abegoaria en Portugal?

Monte da Abegoaria está situado na região Evora em Portugal!

Buscar o nome de uma cidade:

Monte Gurambiro, Monte Urabice, Montgaudry, Mont Robbia, Monte Luela

Aqui você vai encontrar a localização de Monte da Abegoaria em um mapa.
Para ver como ele atualmente parece, abaixo estão algumas fotos da região, com webcams online.
Você também pode encontrar a distância para as principais cidades da região e de cidades do resto do Portugal.

Todos os lugares do mundo chamado .

new

Onde está Monte da Abegoaria no mapa?


Webcams perto Monte da Abegoaria

Comporta: Distrito de - Praia do Carvalhal°.


Comporta: Distrito de - Praia do Carvalhal° - Dia
Actual
Comporta: Distrito de - Praia do Carvalhal° - Actual

Vasco Carão > South: Garrocheira, Benavente - Airport.


Vasco Carão > South: Garrocheira, Benavente - Airport - Dia
Actual
Vasco Carão > South: Garrocheira, Benavente - Airport - Actual

Benavente > North-East: AIrport, METAR: BENAV 180005Z 36004KT 17/14 Q1015.


Benavente > North-East: AIrport, METAR: BENAV 180005Z 36004KT 17/14 Q1015 - Dia
Actual
Benavente > North-East: AIrport, METAR: BENAV 180005Z 36004KT 17/14 Q1015 - Actual

Webcams provided by webcams.travel

Distâncias

Onde está Monte da Abegoaria em relação a outros lugares?

Top 10 cidades em Evora e distância de Monte da Abegoaria.

Cidade#Populaçãokmmilhas
Évora1458512918
Montemor-o-Novo2128545836
Vendas Novas3112487949
Estremoz493494226
Reguengos de Monsaraz5721764
Redondo658452113
Vila Viçosa754843924
Borba845864025
Adaval9-1811
Agua d' Alte10-2717

Top 10 cidades em Portugal e distância de Monte da Abegoaria.

Cidade # Populaçãokmmilhas
Lisbon151779813785
Porto2249630311193
Amadora317885614691
Braga4121393351218
Setúbal511710911471
Coimbra6106580206128
Queluz710339814892
Funchal8980411062660
Vila Nova de Gaia970810309192
Loures106623014389